Time;durP1;ratioP1;P1;durP2;ratioP2;P2;SDS_P1;SDS_P2;PMS_P1;PMS_P2;Temp;Humidity;BMP_temperature;BMP_pressure;BME280_temperature;BME280_humidity;BME280_pressure;Samples;Min_cycle;Max_cycle;Signal;HPM_P1;HPM_P2
2020/12/15 00:00:12;;;;;;;2.00;1.87;;;10.10;99.90;;;;;;5045284;28;20190;-39
2020/12/15 00:02:37;;;;;;;2.43;2.10;;;10.10;99.90;;;;;;5043200;28;20305;-38
2020/12/15 00:05:04;;;;;;;2.40;1.87;;;10.10;99.90;;;;;;5046990;28;20193;-38
2020/12/15 00:07:30;;;;;;;2.37;2.17;;;10.00;99.90;;;;;;5048464;28;20201;-38
2020/12/15 00:09:56;;;;;;;2.57;2.23;;;10.00;99.90;;;;;;5047847;28;20830;-38
2020/12/15 00:12:21;;;;;;;2.60;2.00;;;10.10;99.90;;;;;;5046380;28;20497;-39
2020/12/15 00:14:47;;;;;;;2.20;1.90;;;10.00;99.90;;;;;;5045757;28;20311;-39
2020/12/15 00:17:13;;;;;;;1.97;1.73;;;10.10;99.90;;;;;;5048113;28;20266;-38
2020/12/15 00:19:38;;;;;;;3.03;2.20;;;9.90;99.90;;;;;;5047855;28;20239;-38
2020/12/15 00:22:06;;;;;;;2.50;2.30;;;10.10;99.90;;;;;;5043256;28;20197;-38
2020/12/15 00:24:32;;;;;;;2.67;2.10;;;10.20;99.90;;;;;;5046894;28;20192;-39
2020/12/15 00:26:59;;;;;;;2.30;2.07;;;9.90;99.90;;;;;;5047893;28;20428;-40
2020/12/15 00:29:24;;;;;;;5.10;2.63;;;10.10;99.90;;;;;;5046804;28;20523;-39
2020/12/15 00:31:50;;;;;;;3.13;2.30;;;9.90;99.90;;;;;;5048042;28;21032;-38
2020/12/15 00:34:16;;;;;;;3.00;2.00;;;9.70;99.90;;;;;;5047133;28;20185;-38
2020/12/15 00:36:41;;;;;;;2.63;2.43;;;9.70;99.90;;;;;;5046424;28;20281;-39
2020/12/15 00:39:08;;;;;;;3.07;2.40;;;9.80;99.90;;;;;;5047378;28;20197;-38
2020/12/15 00:41:34;;;;;;;2.97;2.53;;;9.80;99.90;;;;;;5047681;28;20194;-38
2020/12/15 00:43:59;;;;;;;3.43;2.73;;;9.60;99.90;;;;;;5047103;28;20432;-38
2020/12/15 00:46:25;;;;;;;2.53;2.00;;;10.00;99.90;;;;;;5046407;28;20952;-38
2020/12/15 00:48:51;;;;;;;2.70;2.20;;;9.90;99.90;;;;;;5048102;28;20209;-38
2020/12/15 00:51:20;;;;;;;2.40;2.10;;;9.80;99.90;;;;;;5046240;28;20310;-38
2020/12/15 00:53:47;;;;;;;2.00;1.80;;;10.00;99.90;;;;;;5046621;28;20198;-38
2020/12/15 00:56:14;;;;;;;2.87;2.53;;;9.80;99.90;;;;;;5047640;28;20791;-38
2020/12/15 00:58:40;;;;;;;2.30;2.10;;;9.90;99.90;;;;;;5047429;28;20930;-38
2020/12/15 01:01:07;;;;;;;2.63;2.03;;;9.70;99.90;;;;;;5046244;28;20425;-38
2020/12/15 01:03:33;;;;;;;2.20;2.00;;;9.80;99.90;;;;;;5050410;28;20420;-39
2020/12/15 01:05:59;;;;;;;2.20;2.00;;;9.80;99.90;;;;;;5051352;28;20457;-38
2020/12/15 01:08:25;;;;;;;2.50;2.30;;;9.70;99.90;;;;;;5051220;28;20661;-38
2020/12/15 01:10:54;;;;;;;2.57;2.23;;;9.70;99.90;;;;;;5051515;28;20463;-39
2020/12/15 01:13:20;;;;;;;2.83;2.63;;;9.70;99.90;;;;;;5050750;28;20430;-38
2020/12/15 01:15:46;;;;;;;4.10;2.47;;;9.70;99.90;;;;;;5051285;28;20428;-38
2020/12/15 01:18:11;;;;;;;2.30;2.10;;;9.80;99.90;;;;;;5051080;28;20221;-39
2020/12/15 01:20:37;;;;;;;2.80;2.47;;;9.60;99.90;;;;;;5051540;28;20197;-39
2020/12/15 01:23:03;;;;;;;2.50;2.23;;;9.60;99.90;;;;;;5050495;28;20954;-38
2020/12/15 01:25:30;;;;;;;2.70;2.40;;;9.40;99.90;;;;;;5051172;28;20516;-38
2020/12/15 01:27:56;;;;;;;3.40;2.17;;;9.40;99.90;;;;;;5050845;28;20511;-39
2020/12/15 01:30:22;;;;;;;2.67;2.47;;;9.40;99.90;;;;;;5049816;28;20567;-39
2020/12/15 01:32:48;;;;;;;2.60;2.40;;;9.40;99.90;;;;;;5050662;28;20656;-39
2020/12/15 01:35:14;;;;;;;3.80;3.03;;;9.30;99.90;;;;;;5050369;28;20680;-39
2020/12/15 01:37:39;;;;;;;2.67;2.40;;;9.30;99.90;;;;;;5051021;28;20550;-39
2020/12/15 01:40:05;;;;;;;2.93;2.63;;;9.40;99.90;;;;;;5051279;28;20194;-38
2020/12/15 01:42:31;;;;;;;4.27;2.67;;;9.30;99.90;;;;;;5051136;28;20185;-38
2020/12/15 01:44:57;;;;;;;5.10;2.80;;;9.30;99.90;;;;;;5050892;28;20201;-39
2020/12/15 01:47:22;;;;;;;3.80;2.70;;;9.20;99.90;;;;;;5050925;28;20622;-40
2020/12/15 01:49:49;;;;;;;2.97;2.57;;;9.30;99.90;;;;;;5050608;28;20217;-39
2020/12/15 01:52:15;;;;;;;2.63;2.27;;;9.40;99.90;;;;;;5050649;28;20463;-39
2020/12/15 01:54:43;;;;;;;2.97;2.67;;;9.20;99.90;;;;;;5049275;28;20473;-39
2020/12/15 01:57:09;;;;;;;2.63;2.43;;;9.00;99.90;;;;;;5030289;28;20470;-39
2020/12/15 01:59:35;;;;;;;3.63;3.20;;;9.10;99.90;;;;;;5049441;28;20444;-38
2020/12/15 02:02:00;;;;;;;3.83;2.87;;;9.10;99.90;;;;;;5049196;28;20194;-39
2020/12/15 02:04:26;;;;;;;3.10;2.80;;;9.10;99.90;;;;;;5049357;28;20190;-39
2020/12/15 02:06:52;;;;;;;3.03;2.73;;;9.10;99.90;;;;;;5050790;28;20672;-38
2020/12/15 02:09:19;;;;;;;2.90;2.70;;;9.00;99.90;;;;;;5050292;28;20205;-39
2020/12/15 02:11:46;;;;;;;2.73;2.53;;;9.20;99.90;;;;;;5050162;28;20448;-38
2020/12/15 02:14:13;;;;;;;3.23;2.73;;;8.90;99.90;;;;;;5049230;28;20473;-38
2020/12/15 02:16:41;;;;;;;2.33;2.13;;;8.90;99.90;;;;;;5050029;28;20515;-39
2020/12/15 02:19:13;;;;;;;3.70;2.97;;;9.20;99.90;;;;;;5050264;28;20520;-38
2020/12/15 02:21:58;;;;;;;3.70;3.10;;;9.00;99.90;;;;;;5050299;28;20856;-39
2020/12/15 02:24:24;;;;;;;3.20;2.83;;;9.00;99.90;;;;;;5049485;28;20420;-38
2020/12/15 02:26:51;;;;;;;4.30;3.30;;;9.00;99.90;;;;;;5050362;28;20875;-38
2020/12/15 02:29:17;;;;;;;4.37;2.70;;;9.00;99.90;;;;;;5049807;28;20478;-38
2020/12/15 02:31:43;;;;;;;4.27;3.10;;;8.90;99.90;;;;;;5049715;28;20464;-38
2020/12/15 02:34:09;;;;;;;3.70;3.17;;;8.80;99.90;;;;;;5049538;28;20887;-38
2020/12/15 02:36:35;;;;;;;3.23;3.00;;;8.90;99.90;;;;;;5050215;28;20408;-39
2020/12/15 02:39:13;;;;;;;3.67;3.07;;;9.10;99.90;;;;;;5050093;28;20456;-39
2020/12/15 02:41:39;;;;;;;4.00;3.60;;;9.00;99.90;;;;;;5036127;28;20239;-38
2020/12/15 02:44:06;;;;;;;3.90;3.30;;;8.90;99.90;;;;;;5048868;28;20420;-39
2020/12/15 02:46:32;;;;;;;4.27;3.30;;;8.60;99.90;;;;;;5049756;28;20420;-39
2020/12/15 02:48:59;;;;;;;3.97;3.10;;;8.80;99.90;;;;;;5049618;28;20955;-38
2020/12/15 02:51:25;;;;;;;5.60;3.17;;;8.70;99.90;;;;;;5049278;28;20460;-38
2020/12/15 02:53:51;;;;;;;3.97;3.57;;;8.90;99.90;;;;;;5049331;28;20417;-38
2020/12/15 02:56:26;;;;;;;3.90;3.60;;;8.70;99.90;;;;;;5048022;28;20420;-39
2020/12/15 02:58:54;;;;;;;3.40;3.10;;;9.00;99.90;;;;;;5049301;28;20493;-39
2020/12/15 03:01:20;;;;;;;3.97;3.57;;;8.90;99.90;;;;;;5048211;28;20974;-39
2020/12/15 03:03:46;;;;;;;3.27;2.90;;;8.80;99.90;;;;;;5048588;28;20428;-38
2020/12/15 03:06:13;;;;;;;4.93;3.33;;;8.80;99.90;;;;;;5049559;28;20428;-38
2020/12/15 03:08:39;;;;;;;5.10;3.70;;;8.80;99.90;;;;;;5049354;28;20186;-38
2020/12/15 03:11:05;;;;;;;4.43;3.90;;;8.80;99.90;;;;;;5047558;28;20482;-38
2020/12/15 03:13:32;;;;;;;3.73;3.40;;;8.80;99.90;;;;;;5048661;28;20423;-38
2020/12/15 03:15:57;;;;;;;4.40;3.33;;;8.90;99.90;;;;;;5049049;28;20424;-39
2020/12/15 03:18:23;;;;;;;3.97;3.67;;;9.00;99.90;;;;;;5049202;28;21085;-39
2020/12/15 03:20:49;;;;;;;5.70;3.83;;;9.00;99.90;;;;;;5049240;28;20212;-39
2020/12/15 03:23:18;;;;;;;4.13;3.73;;;8.90;99.90;;;;;;5048391;28;20276;-38
2020/12/15 03:25:44;;;;;;;5.80;3.80;;;9.20;99.90;;;;;;5048078;28;20218;-39
2020/12/15 03:28:10;;;;;;;4.17;3.77;;;8.80;99.90;;;;;;5048575;28;20455;-39
2020/12/15 03:30:36;;;;;;;4.47;4.07;;;8.90;99.90;;;;;;5047673;28;20746;-39
2020/12/15 03:33:02;;;;;;;5.13;4.10;;;9.00;99.90;;;;;;5048043;28;20474;-39
2020/12/15 03:35:28;;;;;;;4.87;4.37;;;8.90;99.90;;;;;;5047601;28;20415;-38
2020/12/15 03:37:55;;;;;;;4.67;4.23;;;8.80;99.90;;;;;;5048543;28;20954;-38
2020/12/15 03:40:22;;;;;;;6.17;4.27;;;8.90;99.90;;;;;;5048508;28;20186;-39
2020/12/15 03:42:48;;;;;;;4.93;4.40;;;9.20;99.90;;;;;;5048554;28;20490;-39
2020/12/15 03:45:15;;;;;;;4.67;4.20;;;9.10;99.90;;;;;;5048132;28;20424;-39
2020/12/15 03:47:42;;;;;;;5.63;5.07;;;8.90;99.90;;;;;;5047153;28;20424;-38
2020/12/15 03:50:09;;;;;;;4.60;4.20;;;9.00;99.90;;;;;;5048901;28;20427;-38
2020/12/15 03:52:36;;;;;;;6.20;4.53;;;8.90;99.90;;;;;;5048503;28;20428;-38
2020/12/15 03:55:06;;;;;;;5.40;4.90;;;8.80;99.90;;;;;;5047504;28;20993;-38
2020/12/15 03:57:32;;;;;;;5.03;4.53;;;8.70;99.90;;;;;;5046923;28;20416;-38
2020/12/15 03:59:58;;;;;;;6.40;5.70;;;9.10;99.90;;;;;;5046889;28;20416;-38
2020/12/15 04:02:24;;;;;;;5.73;4.63;;;9.10;99.90;;;;;;5046767;28;20424;-38
2020/12/15 04:04:53;;;;;;;5.77;5.17;;;8.90;99.90;;;;;;5047598;28;20259;-38
2020/12/15 04:07:19;;;;;;;5.43;4.93;;;8.80;99.90;;;;;;5047801;28;20955;-39
2020/12/15 04:09:45;;;;;;;5.97;4.10;;;8.90;99.90;;;;;;5047954;28;21007;-39
2020/12/15 04:12:12;;;;;;;5.13;4.63;;;9.00;99.90;;;;;;5048341;28;20551;-39
2020/12/15 04:14:41;;;;;;;5.50;5.00;;;8.90;99.90;;;;;;5047301;28;20288;-38
2020/12/15 04:17:10;;;;;;;7.93;5.27;;;8.80;99.90;;;;;;5044957;28;20463;-38
2020/12/15 04:19:36;;;;;;;5.43;4.93;;;8.90;99.90;;;;;;5043703;28;20443;-39
2020/12/15 04:22:03;;;;;;;7.80;5.33;;;8.90;99.90;;;;;;5047510;28;20446;-38
2020/12/15 04:24:29;;;;;;;5.67;5.17;;;9.00;99.90;;;;;;5047241;28;20473;-38
2020/12/15 04:26:55;;;;;;;8.20;6.00;;;8.80;99.90;;;;;;5044980;28;20984;-38
2020/12/15 04:29:21;;;;;;;5.33;4.83;;;9.10;99.90;;;;;;5049210;28;20178;-38
2020/12/15 04:31:46;;;;;;;6.57;4.97;;;9.00;99.90;;;;;;5048990;28;20212;-38
2020/12/15 04:34:12;;;;;;;6.37;5.53;;;8.80;99.90;;;;;;5048611;28;20182;-38
2020/12/15 04:36:37;;;;;;;6.33;5.00;;;9.00;99.90;;;;;;5049051;28;20193;-38
2020/12/15 04:39:04;;;;;;;7.63;5.17;;;8.90;99.90;;;;;;5048674;28;20553;-38
2020/12/15 04:41:31;;;;;;;6.57;5.23;;;8.80;99.90;;;;;;5044321;28;20640;-38
2020/12/15 04:43:59;;;;;;;5.93;5.33;;;9.00;99.90;;;;;;5048292;28;20456;-38
2020/12/15 04:46:27;;;;;;;6.30;5.10;;;8.80;99.90;;;;;;5049072;28;20432;-38
2020/12/15 04:49:08;;;;;;;8.23;5.30;;;8.90;99.90;;;;;;5049058;28;20847;-38
2020/12/15 04:51:58;;;;;;;9.53;5.50;;;8.80;99.90;;;;;;5046896;28;20455;-38
2020/12/15 04:54:30;;;;;;;6.40;5.77;;;8.90;99.90;;;;;;5044130;28;20503;-38
2020/12/15 04:57:00;;;;;;;6.40;4.97;;;9.10;99.90;;;;;;5049121;28;20415;-39
2020/12/15 04:59:34;;;;;;;7.47;6.20;;;8.80;99.90;;;;;;5047528;28;20778;-38
2020/12/15 05:02:04;;;;;;;6.87;6.13;;;9.00;99.90;;;;;;5048979;28;20447;-38
2020/12/15 05:04:38;;;;;;;5.73;5.23;;;9.20;99.90;;;;;;5048470;28;20494;-38
2020/12/15 05:07:05;;;;;;;5.67;5.00;;;9.10;99.90;;;;;;5048587;28;20423;-38
2020/12/15 05:09:32;;;;;;;6.43;5.70;;;9.00;99.90;;;;;;5048930;28;20447;-38
2020/12/15 05:11:58;;;;;;;5.43;4.93;;;9.00;99.90;;;;;;5048357;28;20486;-38
2020/12/15 05:14:25;;;;;;;6.83;5.90;;;9.00;99.90;;;;;;5048418;28;20487;-38
2020/12/15 05:16:51;;;;;;;6.07;5.47;;;9.10;99.90;;;;;;5048747;28;20594;-38
2020/12/15 05:19:17;;;;;;;7.03;5.50;;;9.10;99.90;;;;;;5049015;28;20423;-38
2020/12/15 05:22:01;;;;;;;6.13;5.33;;;9.00;99.90;;;;;;5048763;28;20524;-38
2020/12/15 05:24:28;;;;;;;6.17;5.57;;;9.20;99.90;;;;;;5047942;28;20456;-39
2020/12/15 05:26:58;;;;;;;6.63;5.50;;;9.20;99.90;;;;;;5048851;28;20794;-38
2020/12/15 05:29:25;;;;;;;6.23;5.37;;;9.00;99.90;;;;;;5048806;28;20873;-38
2020/12/15 05:31:52;;;;;;;6.20;5.60;;;9.10;99.90;;;;;;5048487;28;20474;-38
2020/12/15 05:34:23;;;;;;;6.67;6.07;;;9.00;99.90;;;;;;5048024;28;20432;-38
2020/12/15 05:36:57;;;;;;;8.47;6.13;;;9.10;99.90;;;;;;5048363;28;20428;-38
2020/12/15 05:39:24;;;;;;;5.30;4.80;;;9.20;99.90;;;;;;5048755;28;20424;-38
2020/12/15 05:42:07;;;;;;;6.50;5.90;;;9.10;99.90;;;;;;5048419;28;20984;-38
2020/12/15 05:44:35;;;;;;;6.40;5.77;;;9.10;99.90;;;;;;5047847;28;20423;-38
2020/12/15 05:47:07;;;;;;;5.77;5.10;;;9.00;99.90;;;;;;5045252;28;20562;-38
2020/12/15 05:49:38;;;;;;;7.00;5.80;;;9.10;99.90;;;;;;5050232;28;20473;-39
2020/12/15 05:52:07;;;;;;;8.30;6.30;;;9.10;99.90;;;;;;5050751;28;20460;-38
2020/12/15 05:54:33;;;;;;;6.43;5.83;;;8.90;99.90;;;;;;5051521;28;20400;-38
2020/12/15 05:57:04;;;;;;;8.40;5.57;;;9.10;99.90;;;;;;5051991;28;20412;-39
2020/12/15 05:59:31;;;;;;;7.20;6.40;;;9.20;99.90;;;;;;5050933;28;20202;-38
2020/12/15 06:02:06;;;;;;;8.13;6.07;;;9.20;99.90;;;;;;5051516;28;20420;-40
2020/12/15 06:04:34;;;;;;;8.03;6.17;;;9.30;99.90;;;;;;5051478;28;20423;-39
2020/12/15 06:07:01;;;;;;;7.37;6.17;;;9.10;99.90;;;;;;5052054;28;20427;-38
2020/12/15 06:09:29;;;;;;;6.60;5.97;;;9.20;99.90;;;;;;5052276;28;20515;-38
2020/12/15 06:11:54;;;;;;;6.50;5.70;;;9.10;99.90;;;;;;5051877;28;20459;-39
2020/12/15 06:14:22;;;;;;;6.13;5.53;;;9.10;99.90;;;;;;5051170;28;20939;-38
2020/12/15 06:16:48;;;;;;;6.63;5.87;;;9.10;99.90;;;;;;5051666;28;20217;-37
2020/12/15 06:19:13;;;;;;;7.17;5.90;;;9.10;99.90;;;;;;5051671;28;20443;-37
2020/12/15 06:21:56;;;;;;;6.50;5.83;;;9.10;99.90;;;;;;5051517;28;20194;-38
2020/12/15 06:24:38;;;;;;;8.43;5.83;;;9.30;99.90;;;;;;5051050;28;20561;-38
2020/12/15 06:27:11;;;;;;;6.40;5.23;;;9.10;99.90;;;;;;5051434;28;20499;-38
2020/12/15 06:29:40;;;;;;;5.90;5.30;;;9.00;99.90;;;;;;5051440;28;20459;-38
2020/12/15 06:32:16;;;;;;;5.97;5.37;;;9.20;99.90;;;;;;5049765;28;20467;-38
2020/12/15 06:34:45;;;;;;;7.23;5.90;;;9.10;99.90;;;;;;5050737;28;20422;-38
2020/12/15 06:37:13;;;;;;;8.63;6.93;;;9.20;99.90;;;;;;5050756;28;20419;-39
2020/12/15 06:39:51;;;;;;;7.07;6.30;;;9.30;99.90;;;;;;5049523;28;21032;-38
2020/12/15 06:42:16;;;;;;;7.37;6.67;;;9.10;99.90;;;;;;5042293;28;20989;-38
2020/12/15 06:44:43;;;;;;;7.70;6.50;;;9.20;99.90;;;;;;5045134;28;20846;-39
2020/12/15 06:47:09;;;;;;;7.30;6.60;;;9.30;99.90;;;;;;5049582;28;20216;-38
2020/12/15 06:49:37;;;;;;;6.90;6.27;;;9.40;99.90;;;;;;5049554;28;20434;-38
2020/12/15 06:52:05;;;;;;;7.40;6.70;;;9.10;99.90;;;;;;5058414;28;20969;-38
2020/12/15 06:54:34;;;;;;;7.67;6.87;;;9.20;99.90;;;;;;5043738;28;20462;-38
2020/12/15 06:57:04;;;;;;;8.07;7.07;;;9.20;99.90;;;;;;5049680;28;20466;-38
2020/12/15 06:59:38;;;;;;;8.17;7.33;;;9.30;99.90;;;;;;5046969;28;20428;-38
2020/12/15 07:02:15;;;;;;;7.27;6.50;;;9.10;99.90;;;;;;5045013;28;20734;-38
2020/12/15 07:04:48;;;;;;;7.97;7.20;;;9.30;99.90;;;;;;5048539;28;20441;-38
2020/12/15 07:07:16;;;;;;;7.43;6.70;;;9.10;99.90;;;;;;5049419;28;20474;-38
2020/12/15 07:09:43;;;;;;;6.90;6.20;;;9.10;99.90;;;;;;5047937;28;20519;-38
2020/12/15 07:12:16;;;;;;;7.60;6.80;;;9.30;99.90;;;;;;5046392;28;20461;-38
2020/12/15 07:14:50;;;;;;;7.23;6.50;;;9.30;99.90;;;;;;5039996;28;20954;-38
2020/12/15 07:17:16;;;;;;;9.00;6.73;;;9.20;99.90;;;;;;5048033;28;20432;-38
2020/12/15 07:19:42;;;;;;;8.00;6.90;;;9.20;99.90;;;;;;5049260;28;20421;-38
2020/12/15 07:22:08;;;;;;;7.33;6.73;;;9.20;99.90;;;;;;5051000;28;20802;-39
2020/12/15 07:24:34;;;;;;;8.30;7.50;;;9.30;99.90;;;;;;5047826;28;20403;-38
2020/12/15 07:27:01;;;;;;;8.13;6.50;;;9.20;99.90;;;;;;5047359;28;20523;-38
2020/12/15 07:29:26;;;;;;;7.07;6.47;;;9.10;99.90;;;;;;5048103;28;20478;-38
2020/12/15 07:31:52;;;;;;;7.10;6.40;;;9.30;99.90;;;;;;5047896;28;20464;-39
2020/12/15 07:34:19;;;;;;;7.40;6.70;;;9.40;99.90;;;;;;5047402;28;20621;-39
2020/12/15 07:36:47;;;;;;;7.37;6.67;;;9.40;99.90;;;;;;5048171;28;20793;-38
2020/12/15 07:39:13;;;;;;;7.50;6.80;;;9.60;99.90;;;;;;5062543;28;20423;-38
2020/12/15 07:41:40;;;;;;;7.47;6.77;;;9.30;99.90;;;;;;5067776;28;20426;-38
2020/12/15 07:44:18;;;;;;;7.50;6.70;;;9.20;99.90;;;;;;5067205;28;20461;-38
2020/12/15 07:46:46;;;;;;;9.27;6.90;;;9.30;99.90;;;;;;5068452;28;20459;-39
2020/12/15 07:49:13;;;;;;;7.37;6.67;;;9.40;99.90;;;;;;5068801;28;20462;-39
2020/12/15 07:51:39;;;;;;;7.30;6.60;;;9.30;99.90;;;;;;5068436;28;20770;-38
2020/12/15 07:54:05;;;;;;;7.13;6.53;;;9.30;99.90;;;;;;5067741;28;20419;-38
2020/12/15 07:56:31;;;;;;;8.40;6.40;;;9.50;99.90;;;;;;5048476;28;20454;-39
2020/12/15 07:58:58;;;;;;;6.23;5.73;;;9.30;99.90;;;;;;5049222;28;20796;-38
2020/12/15 08:01:26;;;;;;;7.17;6.47;;;9.40;99.90;;;;;;5046329;28;20702;-38
2020/12/15 08:04:09;;;;;;;6.90;6.17;;;9.40;99.90;;;;;;5047753;28;20578;-39
2020/12/15 08:06:37;;;;;;;6.20;5.60;;;9.40;99.90;;;;;;5047993;28;20792;-38
2020/12/15 08:09:05;;;;;;;6.60;6.00;;;9.30;99.90;;;;;;5048400;28;20495;-38
2020/12/15 08:11:31;;;;;;;6.53;5.93;;;9.50;99.90;;;;;;5047668;28;21036;-38
2020/12/15 08:14:00;;;;;;;6.33;5.60;;;9.60;99.90;;;;;;5047552;28;20419;-38
2020/12/15 08:16:27;;;;;;;6.67;5.97;;;9.60;99.90;;;;;;5048623;28;20444;-38
2020/12/15 08:19:03;;;;;;;6.80;6.20;;;9.50;99.90;;;;;;5034812;28;20496;-38
2020/12/15 08:21:46;;;;;;;7.57;6.87;;;9.50;99.90;;;;;;5047891;28;20918;-38
2020/12/15 08:24:14;;;;;;;6.00;5.40;;;9.60;99.90;;;;;;5047522;28;20416;-38
2020/12/15 08:26:41;;;;;;;6.50;5.90;;;9.50;99.90;;;;;;5046688;28;20589;-38
2020/12/15 08:29:10;;;;;;;5.77;5.27;;;9.50;99.90;;;;;;5047564;28;20428;-38
2020/12/15 08:31:38;;;;;;;5.73;5.13;;;9.50;99.90;;;;;;5046141;28;20968;-38
2020/12/15 08:34:18;;;;;;;5.80;5.30;;;9.60;99.90;;;;;;5045585;28;20943;-39
2020/12/15 08:36:48;;;;;;;6.80;6.10;;;9.40;99.90;;;;;;5047951;28;20420;-38
2020/12/15 08:39:17;;;;;;;5.93;5.33;;;9.60;99.90;;;;;;5047619;28;20416;-38
2020/12/15 08:41:57;;;;;;;6.27;5.67;;;9.50;99.90;;;;;;5047847;28;20737;-39
2020/12/15 08:44:24;;;;;;;5.80;5.20;;;9.60;99.90;;;;;;5063869;28;20419;-38
2020/12/15 08:46:51;;;;;;;5.60;5.03;;;9.50;99.90;;;;;;5066549;28;20812;-39
2020/12/15 08:49:17;;;;;;;4.57;4.17;;;9.60;99.90;;;;;;5067602;28;21018;-38
2020/12/15 08:51:45;;;;;;;6.13;5.57;;;9.60;99.90;;;;;;5067713;28;20984;-38
2020/12/15 08:54:11;;;;;;;5.33;4.83;;;9.50;99.90;;;;;;5067001;28;20984;-38
2020/12/15 08:56:37;;;;;;;4.63;4.23;;;9.60;99.90;;;;;;5067933;28;20443;-38
2020/12/15 08:59:17;;;;;;;5.20;4.70;;;9.50;99.90;;;;;;5067285;28;20459;-38
2020/12/15 09:01:44;;;;;;;4.90;4.47;;;9.30;99.90;;;;;;5066625;28;20434;-38
2020/12/15 09:04:10;;;;;;;4.70;4.30;;;9.30;99.90;;;;;;5066820;28;20705;-38
2020/12/15 09:06:40;;;;;;;5.57;5.07;;;9.40;99.90;;;;;;5067547;28;20424;-38
2020/12/15 09:09:08;;;;;;;5.70;4.50;;;9.50;99.90;;;;;;5067653;28;20918;-39
2020/12/15 09:11:35;;;;;;;4.60;4.20;;;9.60;99.90;;;;;;5066959;28;20676;-38
2020/12/15 09:14:03;;;;;;;4.90;4.50;;;9.40;99.90;;;;;;5067088;28;20508;-39
2020/12/15 09:16:39;;;;;;;4.50;4.10;;;9.40;99.90;;;;;;5067611;28;20439;-38
2020/12/15 09:19:18;;;;;;;4.53;4.13;;;9.60;99.90;;;;;;5067644;28;20790;-38
2020/12/15 09:22:02;;;;;;;4.70;4.30;;;9.50;99.90;;;;;;5067507;28;20446;-38
2020/12/15 09:24:29;;;;;;;4.77;4.17;;;9.50;99.90;;;;;;5070238;28;20464;-38
2020/12/15 09:26:55;;;;;;;5.37;4.43;;;9.40;99.90;;;;;;5071390;28;20508;-39
2020/12/15 09:29:22;;;;;;;5.33;4.83;;;9.60;99.90;;;;;;5044711;28;20421;-38
2020/12/15 09:31:53;;;;;;;4.90;4.40;;;9.40;99.90;;;;;;5051389;28;20500;-38
2020/12/15 09:34:19;;;;;;;5.00;4.50;;;9.50;99.90;;;;;;5050290;28;20416;-38
2020/12/15 09:36:56;;;;;;;6.30;4.83;;;9.50;99.90;;;;;;5050871;28;20449;-38
2020/12/15 09:39:27;;;;;;;5.33;4.57;;;9.50;99.90;;;;;;5050775;28;20503;-37
2020/12/15 09:41:56;;;;;;;5.90;5.30;;;9.60;99.90;;;;;;5050907;28;20428;-38
2020/12/15 09:44:22;;;;;;;4.93;4.50;;;9.60;99.90;;;;;;5050424;28;20424;-39
2020/12/15 09:46:47;;;;;;;5.67;5.17;;;9.60;99.90;;;;;;5049588;28;20771;-38
2020/12/15 09:49:13;;;;;;;5.00;4.50;;;9.70;99.90;;;;;;5050837;28;20185;-37
2020/12/15 09:51:41;;;;;;;5.03;4.60;;;9.70;99.90;;;;;;5050731;28;20236;-38
2020/12/15 09:54:07;;;;;;;5.17;4.67;;;9.60;99.90;;;;;;5050277;28;20182;-38
2020/12/15 09:56:33;;;;;;;5.20;4.70;;;9.60;99.90;;;;;;5050728;28;20426;-38
2020/12/15 09:58:58;;;;;;;4.43;4.03;;;9.60;99.90;;;;;;5049402;28;20942;-38
2020/12/15 10:01:25;;;;;;;4.90;4.40;;;9.70;99.90;;;;;;5048912;28;20194;-38
2020/12/15 10:03:50;;;;;;;5.10;4.17;;;9.60;99.90;;;;;;5049934;28;20190;-38
2020/12/15 10:06:16;;;;;;;4.23;3.83;;;9.90;99.90;;;;;;5050264;28;20416;-38
2020/12/15 10:08:42;;;;;;;6.73;4.00;;;9.70;99.90;;;;;;5050663;28;20420;-38
2020/12/15 10:11:13;;;;;;;5.00;4.50;;;9.60;99.90;;;;;;5050552;28;20499;-38
2020/12/15 10:13:38;;;;;;;4.97;4.37;;;9.90;99.90;;;;;;5049972;28;20447;-38
2020/12/15 10:16:04;;;;;;;3.80;3.50;;;9.70;99.90;;;;;;5048763;28;20483;-38
2020/12/15 10:18:30;;;;;;;4.00;3.50;;;9.80;99.90;;;;;;5053817;28;20185;-39
2020/12/15 10:20:55;;;;;;;4.17;3.87;;;9.80;99.90;;;;;;5069225;28;21052;-39
2020/12/15 10:23:21;;;;;;;4.10;3.67;;;9.90;99.90;;;;;;5069823;28;20276;-38
2020/12/15 10:25:47;;;;;;;3.90;3.53;;;9.80;99.90;;;;;;5070118;28;20571;-38
2020/12/15 10:28:12;;;;;;;4.60;4.20;;;9.90;99.90;;;;;;5062313;28;20261;-37
2020/12/15 10:30:38;;;;;;;4.30;3.90;;;9.90;99.90;;;;;;5039504;28;20240;-38
2020/12/15 10:33:04;;;;;;;4.13;3.73;;;9.80;99.90;;;;;;5049307;28;20217;-38
2020/12/15 10:35:29;;;;;;;3.87;3.47;;;10.00;99.90;;;;;;5050099;28;20200;-38
2020/12/15 10:37:55;;;;;;;4.20;3.80;;;9.70;99.90;;;;;;5049808;28;20193;-38
2020/12/15 10:40:21;;;;;;;4.93;3.73;;;10.00;99.90;;;;;;5050184;28;20365;-38
2020/12/15 10:42:46;;;;;;;4.40;3.97;;;9.80;99.90;;;;;;5049806;28;20186;-38
2020/12/15 10:45:12;;;;;;;4.10;3.70;;;10.10;99.90;;;;;;5049434;28;20181;-38
2020/12/15 10:47:38;;;;;;;4.90;4.40;;;10.10;99.90;;;;;;5049925;28;20510;-38
2020/12/15 10:50:04;;;;;;;4.27;3.97;;;9.80;99.90;;;;;;5050221;28;20189;-38
2020/12/15 10:52:29;;;;;;;4.67;4.03;;;9.90;99.90;;;;;;5049615;28;20763;-39
2020/12/15 10:54:55;;;;;;;5.80;4.00;;;9.90;99.90;;;;;;5048089;28;20178;-39
2020/12/15 10:57:21;;;;;;;4.90;4.40;;;10.10;99.90;;;;;;5050038;28;20224;-38
2020/12/15 10:59:47;;;;;;;4.93;4.43;;;9.90;99.90;;;;;;5048478;28;20181;-39
2020/12/15 11:02:13;;;;;;;4.80;4.40;;;9.80;99.90;;;;;;5047979;28;20735;-38
2020/12/15 11:04:39;;;;;;;4.60;4.20;;;10.00;99.90;;;;;;5048484;28;20538;-38
2020/12/15 11:07:05;;;;;;;4.30;3.70;;;9.90;99.90;;;;;;5048606;28;20519;-38
2020/12/15 11:09:30;;;;;;;4.80;4.30;;;9.90;99.90;;;;;;5049414;28;20181;-38
2020/12/15 11:11:56;;;;;;;4.80;4.30;;;10.20;99.90;;;;;;5049289;28;20243;-38
2020/12/15 11:14:22;;;;;;;5.20;4.70;;;9.90;99.90;;;;;;5042705;28;20265;-38
2020/12/15 11:16:47;;;;;;;5.13;4.10;;;10.10;99.90;;;;;;5048946;28;20201;-38
2020/12/15 11:19:13;;;;;;;4.60;4.00;;;10.10;99.90;;;;;;5048919;28;20273;-39
2020/12/15 11:21:39;;;;;;;4.77;4.27;;;10.00;99.90;;;;;;5044828;28;20394;-38
2020/12/15 11:24:04;;;;;;;4.80;4.27;;;10.00;99.90;;;;;;5041628;28;20194;-39
2020/12/15 11:26:30;;;;;;;4.60;4.20;;;10.00;99.90;;;;;;5049038;28;20182;-39
2020/12/15 11:28:56;;;;;;;4.60;3.70;;;10.10;99.90;;;;;;5045934;28;20200;-38
2020/12/15 11:31:21;;;;;;;4.70;4.30;;;10.30;99.90;;;;;;5047445;28;20840;-39
2020/12/15 11:33:47;;;;;;;5.00;4.40;;;10.20;99.90;;;;;;5047141;28;20189;-38
2020/12/15 11:36:15;;;;;;;4.93;4.43;;;10.10;99.90;;;;;;5048592;28;20736;-38
2020/12/15 11:38:43;;;;;;;4.97;4.57;;;10.00;99.90;;;;;;5049067;28;20178;-37
2020/12/15 11:41:10;;;;;;;5.67;4.27;;;10.00;99.90;;;;;;5047387;28;20420;-37
2020/12/15 11:43:36;;;;;;;4.37;3.97;;;10.10;99.90;;;;;;5046549;28;20431;-37
2020/12/15 11:46:02;;;;;;;5.83;4.73;;;10.20;99.90;;;;;;5046827;28;20783;-38
2020/12/15 11:48:27;;;;;;;4.63;4.23;;;10.10;99.90;;;;;;5048714;28;20428;-38
2020/12/15 11:50:53;;;;;;;5.80;4.40;;;10.00;99.90;;;;;;5048791;28;20224;-38
2020/12/15 11:53:19;;;;;;;4.23;3.83;;;10.10;99.90;;;;;;5047998;28;20702;-38
2020/12/15 11:55:45;;;;;;;4.10;3.80;;;10.20;99.90;;;;;;5048923;28;20212;-37
2020/12/15 11:58:10;;;;;;;4.53;4.07;;;10.00;99.90;;;;;;5047062;28;20698;-39
2020/12/15 12:00:36;;;;;;;4.60;4.03;;;10.10;99.90;;;;;;5047200;28;20268;-38
2020/12/15 12:03:02;;;;;;;4.90;4.40;;;10.00;99.90;;;;;;5048006;28;20375;-38
2020/12/15 12:05:28;;;;;;;4.73;4.33;;;10.10;99.90;;;;;;5048238;28;20201;-38
2020/12/15 12:07:53;;;;;;;4.43;3.77;;;10.10;99.90;;;;;;5048447;28;20428;-37
2020/12/15 12:10:19;;;;;;;4.90;4.30;;;10.20;99.90;;;;;;5048301;28;20194;-37
2020/12/15 12:12:45;;;;;;;5.20;4.70;;;10.20;99.90;;;;;;5047801;28;20190;-38
2020/12/15 12:15:11;;;;;;;4.60;4.20;;;10.00;99.90;;;;;;5047479;28;20436;-37
2020/12/15 12:17:36;;;;;;;4.57;4.17;;;10.20;99.90;;;;;;5048181;28;20295;-39
2020/12/15 12:20:05;;;;;;;6.10;5.00;;;10.20;99.90;;;;;;5048380;28;20370;-38
2020/12/15 12:22:31;;;;;;;5.20;4.20;;;10.20;99.90;;;;;;5047896;28;20208;-39
2020/12/15 12:24:57;;;;;;;4.67;4.07;;;10.20;99.90;;;;;;5047454;28;20790;-38
2020/12/15 12:27:23;;;;;;;5.10;4.60;;;10.10;99.90;;;;;;5047709;28;20428;-39
2020/12/15 12:29:49;;;;;;;5.87;5.27;;;10.10;99.90;;;;;;5046567;28;20225;-40
2020/12/15 12:32:14;;;;;;;4.70;4.30;;;10.10;99.90;;;;;;5046476;28;20510;-37
2020/12/15 12:34:40;;;;;;;4.67;4.20;;;10.20;99.90;;;;;;5047133;28;20217;-38
2020/12/15 12:37:09;;;;;;;4.83;4.33;;;10.30;99.90;;;;;;5047679;28;20193;-37
2020/12/15 12:39:35;;;;;;;5.40;4.90;;;10.20;99.90;;;;;;5047994;28;20227;-39
2020/12/15 12:42:02;;;;;;;4.60;3.97;;;10.20;99.90;;;;;;5048058;28;20776;-38
2020/12/15 12:44:28;;;;;;;5.43;4.90;;;10.20;99.90;;;;;;5026414;28;20487;-38
2020/12/15 12:46:54;;;;;;;5.10;4.60;;;10.20;99.90;;;;;;5038960;28;20420;-38
2020/12/15 12:49:19;;;;;;;5.97;5.37;;;10.00;99.90;;;;;;5047902;28;20420;-38
2020/12/15 12:51:46;;;;;;;5.53;4.93;;;10.20;99.90;;;;;;5047558;28;20248;-37
2020/12/15 12:54:12;;;;;;;5.73;5.23;;;10.20;99.90;;;;;;5047011;28;20212;-38
2020/12/15 12:56:44;;;;;;;6.67;6.00;;;10.20;99.90;;;;;;5047764;28;20421;-38